Time;durP1;ratioP1;P1;durP2;ratioP2;P2;SDS_P1;SDS_P2;PMS_P1;PMS_P2;Temp;Humidity;BMP_temperature;BMP_pressure;BME280_temperature;BME280_humidity;BME280_pressure;Samples;Min_cycle;Max_cycle;Signal;HPM_P1;HPM_P2
2024/04/15 00:02:20;;;;;;;;;;;15.40;90.90;;;;;;5451784;26;19924;-72
2024/04/15 00:04:46;;;;;;;;;;;15.30;91.80;;;;;;5451750;26;19936;-75
2024/04/15 00:07:11;;;;;;;;;;;15.30;91.80;;;;;;5451817;26;20005;-72
2024/04/15 00:09:37;;;;;;;;;;;15.30;91.70;;;;;;5451823;26;20372;-72
2024/04/15 00:12:02;;;;;;;;;;;15.30;91.70;;;;;;5480450;26;19947;-72
2024/04/15 00:14:28;;;;;;;;;;;15.30;92.00;;;;;;5480216;26;19984;-72
2024/04/15 00:16:53;;;;;;;;;;;15.20;92.40;;;;;;5480325;26;19931;-75
2024/04/15 00:19:19;;;;;;;;;;;15.20;92.20;;;;;;5451517;26;19924;-72
2024/04/15 00:21:45;;;;;;;;;;;15.20;92.40;;;;;;5451680;26;19931;-71
2024/04/15 00:24:10;;;;;;;;;;;15.10;92.80;;;;;;5451516;26;19924;-72
2024/04/15 00:26:36;;;;;;;;;;;15.10;93.10;;;;;;5479601;26;19973;-71
2024/04/15 00:29:01;;;;;;;;;;;15.10;93.30;;;;;;5478705;26;19924;-75
2024/04/15 00:31:27;;;;;;;;;;;15.00;93.50;;;;;;5451618;26;19924;-75
2024/04/15 00:33:53;;;;;;;;;;;15.00;94.00;;;;;;5451442;26;19932;-74
2024/04/15 00:36:19;;;;;;;;;;;15.00;93.90;;;;;;5451507;26;19925;-75
2024/04/15 00:38:44;;;;;;;;;;;15.00;94.10;;;;;;5451469;26;19960;-74
2024/04/15 00:41:10;;;;;;;;;;;15.00;94.40;;;;;;5449237;26;20250;-73
2024/04/15 00:43:35;;;;;;;;;;;15.00;94.40;;;;;;5451325;26;19924;-74
2024/04/15 00:46:01;;;;;;;;;;;15.00;94.40;;;;;;5479850;26;20341;-72
2024/04/15 00:48:26;;;;;;;;;;;14.90;94.80;;;;;;5451085;26;20260;-74
2024/04/15 00:50:52;;;;;;;;;;;15.00;95.50;;;;;;5451337;26;20261;-75
2024/04/15 00:53:21;;;;;;;;;;;14.90;95.70;;;;;;5479733;26;20400;-74
2024/04/15 00:55:48;;;;;;;;;;;14.90;95.80;;;;;;5479778;26;19925;-74
2024/04/15 00:58:15;;;;;;;;;;;14.90;95.80;;;;;;5479684;26;19931;-74
2024/04/15 01:00:40;;;;;;;;;;;14.90;95.90;;;;;;5449150;26;19964;-74
2024/04/15 01:03:07;;;;;;;;;;;14.90;96.00;;;;;;5450872;26;19924;-75
2024/04/15 01:05:32;;;;;;;;;;;14.90;96.20;;;;;;5451348;26;19936;-75
2024/04/15 01:07:58;;;;;;;;;;;14.90;96.50;;;;;;5450922;26;19931;-75
2024/04/15 01:10:23;;;;;;;;;;;14.90;96.70;;;;;;5479115;26;19925;-75
2024/04/15 01:12:49;;;;;;;;;;;14.90;96.80;;;;;;5479316;26;19925;-75
2024/04/15 01:15:15;;;;;;;;;;;15.00;96.80;;;;;;5479503;26;19944;-74
2024/04/15 01:17:42;;;;;;;;;;;15.00;96.80;;;;;;5450717;26;19932;-74
2024/04/15 01:20:07;;;;;;;;;;;15.00;97.60;;;;;;5450768;26;20349;-74
2024/04/15 01:22:33;;;;;;;;;;;15.00;97.20;;;;;;5479222;26;19952;-74
2024/04/15 01:25:00;;;;;;;;;;;15.00;97.60;;;;;;5450788;26;20050;-75
2024/04/15 01:27:26;;;;;;;;;;;15.00;97.40;;;;;;5479729;26;19994;-75
2024/04/15 01:29:52;;;;;;;;;;;15.00;97.70;;;;;;5450670;26;19997;-74
2024/04/15 01:32:17;;;;;;;;;;;14.90;98.00;;;;;;5450308;26;20324;-74
2024/04/15 01:34:43;;;;;;;;;;;15.00;98.00;;;;;;5478537;26;20323;-75
2024/04/15 01:37:08;;;;;;;;;;;15.00;98.10;;;;;;5450359;26;19924;-74
2024/04/15 01:39:34;;;;;;;;;;;14.90;98.20;;;;;;5449471;26;19935;-74
2024/04/15 01:41:59;;;;;;;;;;;14.90;98.30;;;;;;5450660;26;20346;-74
2024/04/15 01:44:25;;;;;;;;;;;14.90;98.40;;;;;;5450667;26;20376;-73
2024/04/15 01:46:50;;;;;;;;;;;14.90;98.70;;;;;;5478945;26;19930;-74
2024/04/15 01:49:16;;;;;;;;;;;14.90;98.80;;;;;;5450305;26;19924;-74
2024/04/15 01:51:41;;;;;;;;;;;15.00;99.00;;;;;;5479038;26;19954;-73
2024/04/15 01:54:07;;;;;;;;;;;15.00;99.10;;;;;;5450795;26;20358;-74
2024/04/15 01:56:32;;;;;;;;;;;15.00;99.10;;;;;;5450472;26;20365;-74
2024/04/15 01:58:58;;;;;;;;;;;15.00;99.40;;;;;;5478677;26;19932;-73
2024/04/15 02:01:23;;;;;;;;;;;15.00;99.60;;;;;;5450223;26;19931;-74
2024/04/15 02:03:49;;;;;;;;;;;15.00;99.90;;;;;;5450102;26;19969;-74
2024/04/15 02:06:14;;;;;;;;;;;15.00;99.90;;;;;;5450074;26;19932;-73
2024/04/15 02:08:40;;;;;;;;;;;14.90;99.90;;;;;;5449995;26;19957;-75
2024/04/15 02:11:06;;;;;;;;;;;15.00;99.90;;;;;;5478538;26;19987;-74
2024/04/15 02:13:31;;;;;;;;;;;15.00;99.90;;;;;;5449929;26;19931;-74
2024/04/15 02:15:57;;;;;;;;;;;15.00;99.90;;;;;;5449989;26;19924;-74
2024/04/15 02:18:22;;;;;;;;;;;15.00;99.90;;;;;;5449612;26;19929;-74
2024/04/15 02:20:48;;;;;;;;;;;15.00;99.90;;;;;;5450304;26;19936;-74
2024/04/15 02:23:13;;;;;;;;;;;15.00;99.90;;;;;;5449764;26;19924;-74
2024/04/15 02:25:39;;;;;;;;;;;15.00;99.90;;;;;;5478298;26;19933;-74
2024/04/15 02:28:04;;;;;;;;;;;15.00;99.90;;;;;;5478175;26;20311;-74
2024/04/15 02:30:30;;;;;;;;;;;14.90;99.90;;;;;;5477843;26;19936;-74
2024/04/15 02:32:55;;;;;;;;;;;14.90;99.90;;;;;;5449518;26;19964;-73
2024/04/15 02:35:21;;;;;;;;;;;15.00;99.90;;;;;;5449355;26;19932;-74
2024/04/15 02:37:46;;;;;;;;;;;14.90;99.90;;;;;;5449415;26;19924;-73
2024/04/15 02:40:12;;;;;;;;;;;14.90;99.90;;;;;;5449076;26;19924;-74
2024/04/15 02:42:38;;;;;;;;;;;14.90;99.90;;;;;;5477749;26;20031;-74
2024/04/15 02:45:03;;;;;;;;;;;14.90;99.90;;;;;;5449415;26;19924;-74
2024/04/15 02:47:29;;;;;;;;;;;14.90;99.90;;;;;;5449192;26;20270;-74
2024/04/15 02:49:55;;;;;;;;;;;14.90;99.90;;;;;;5449211;26;20314;-74
2024/04/15 02:52:20;;;;;;;;;;;15.00;99.90;;;;;;5480429;26;19924;-74
2024/04/15 02:54:46;;;;;;;;;;;15.10;99.90;;;;;;5453035;26;19924;-74
2024/04/15 02:57:11;;;;;;;;;;;15.20;99.90;;;;;;5481175;26;19989;-73
2024/04/15 02:59:38;;;;;;;;;;;15.20;99.90;;;;;;5481580;26;19924;-73
2024/04/15 03:02:04;;;;;;;;;;;15.30;99.90;;;;;;5453080;26;19939;-72
2024/04/15 03:04:30;;;;;;;;;;;15.20;99.90;;;;;;5452702;26;19932;-74
2024/04/15 03:06:55;;;;;;;;;;;15.30;99.90;;;;;;5452708;26;20378;-75
2024/04/15 03:09:23;;;;;;;;;;;15.20;99.90;;;;;;5452734;26;19947;-73
2024/04/15 03:11:48;;;;;;;;;;;15.20;99.90;;;;;;5480964;26;19943;-73
2024/04/15 03:14:14;;;;;;;;;;;15.20;99.90;;;;;;5452338;26;19989;-74
2024/04/15 03:16:42;;;;;;;;;;;15.10;99.90;;;;;;5452470;26;19931;-73
2024/04/15 03:19:08;;;;;;;;;;;15.10;99.90;;;;;;5452375;26;19966;-73
2024/04/15 03:21:33;;;;;;;;;;;15.10;99.90;;;;;;5452492;26;19925;-73
2024/04/15 03:23:59;;;;;;;;;;;15.00;99.90;;;;;;5480869;26;19924;-74
2024/04/15 03:26:24;;;;;;;;;;;15.00;99.90;;;;;;5452389;26;19931;-73
2024/04/15 03:28:50;;;;;;;;;;;15.00;99.90;;;;;;5452324;26;20350;-74
2024/04/15 03:31:15;;;;;;;;;;;14.90;99.90;;;;;;5480604;26;20361;-75
2024/04/15 03:33:41;;;;;;;;;;;14.90;99.90;;;;;;5480775;26;20342;-74
2024/04/15 03:36:07;;;;;;;;;;;14.90;99.90;;;;;;5452364;26;19925;-74
2024/04/15 03:38:32;;;;;;;;;;;14.80;99.90;;;;;;5480803;26;19924;-74
2024/04/15 03:40:58;;;;;;;;;;;14.80;99.90;;;;;;5480853;26;19932;-74
2024/04/15 03:43:24;;;;;;;;;;;14.80;99.90;;;;;;5479912;26;19932;-74
2024/04/15 03:45:49;;;;;;;;;;;14.80;99.90;;;;;;5452180;26;20243;-73
2024/04/15 03:48:15;;;;;;;;;;;14.90;99.90;;;;;;5452173;26;19936;-74
2024/04/15 03:50:41;;;;;;;;;;;15.00;99.90;;;;;;5451971;26;19999;-73
2024/04/15 03:53:06;;;;;;;;;;;15.00;99.90;;;;;;5480425;26;19925;-74
2024/04/15 03:55:32;;;;;;;;;;;15.00;99.90;;;;;;5451747;26;20402;-73
2024/04/15 03:57:58;;;;;;;;;;;15.20;99.90;;;;;;5451650;26;20353;-73
2024/04/15 04:00:23;;;;;;;;;;;15.20;99.90;;;;;;5480248;26;20386;-74
2024/04/15 04:02:49;;;;;;;;;;;15.20;99.90;;;;;;5480140;26;19959;-74
2024/04/15 04:05:14;;;;;;;;;;;15.20;99.90;;;;;;5451868;26;19924;-74
2024/04/15 04:07:40;;;;;;;;;;;15.20;99.90;;;;;;5480200;26;19960;-74
2024/04/15 04:10:05;;;;;;;;;;;15.30;99.90;;;;;;5480120;26;19931;-73
2024/04/15 04:12:31;;;;;;;;;;;15.30;99.90;;;;;;5479982;26;20265;-74
2024/04/15 04:14:56;;;;;;;;;;;15.30;99.90;;;;;;5451075;26;19931;-73
2024/04/15 04:17:22;;;;;;;;;;;15.30;99.90;;;;;;5479765;26;19925;-72
2024/04/15 04:19:48;;;;;;;;;;;15.20;99.90;;;;;;5451211;26;19925;-73
2024/04/15 04:22:13;;;;;;;;;;;15.30;99.90;;;;;;5479792;26;19993;-73
2024/04/15 04:24:39;;;;;;;;;;;15.30;99.90;;;;;;5450552;26;19931;-73
2024/04/15 04:27:04;;;;;;;;;;;15.30;99.90;;;;;;5450665;26;19985;-74
2024/04/15 04:29:32;;;;;;;;;;;15.40;99.90;;;;;;5449614;26;19954;-74
2024/04/15 04:31:58;;;;;;;;;;;15.40;99.90;;;;;;5448416;26;19997;-73
2024/04/15 04:34:23;;;;;;;;;;;15.30;99.90;;;;;;5448920;26;19972;-73
2024/04/15 04:36:49;;;;;;;;;;;15.20;99.90;;;;;;5448569;26;19993;-74
2024/04/15 04:39:14;;;;;;;;;;;15.10;99.90;;;;;;5448647;26;19925;-73
2024/04/15 04:41:40;;;;;;;;;;;15.00;99.90;;;;;;5476873;26;19924;-74
2024/04/15 04:44:05;;;;;;;;;;;14.90;99.90;;;;;;5476961;26;19955;-74
2024/04/15 04:46:31;;;;;;;;;;;14.90;99.90;;;;;;5448553;26;19924;-74
2024/04/15 04:48:56;;;;;;;;;;;15.00;99.90;;;;;;5448202;26;19928;-73
2024/04/15 04:51:22;;;;;;;;;;;14.90;99.90;;;;;;5449673;26;20253;-74
2024/04/15 04:53:47;;;;;;;;;;;15.00;99.90;;;;;;5443424;26;20420;-73
2024/04/15 04:56:14;;;;;;;;;;;14.90;99.90;;;;;;5450621;26;19932;-74
2024/04/15 04:58:40;;;;;;;;;;;15.00;99.90;;;;;;5450550;26;20313;-74
2024/04/15 05:01:06;;;;;;;;;;;15.10;99.90;;;;;;5450406;26;19924;-73
2024/04/15 05:03:32;;;;;;;;;;;15.30;99.90;;;;;;5450564;26;20414;-74
2024/04/15 05:05:57;;;;;;;;;;;15.40;99.90;;;;;;5449514;26;19960;-74
2024/04/15 05:08:23;;;;;;;;;;;15.50;99.90;;;;;;5450413;26;19993;-73
2024/04/15 05:10:48;;;;;;;;;;;15.60;99.90;;;;;;5450558;26;20442;-74
2024/04/15 05:13:14;;;;;;;;;;;15.80;99.90;;;;;;5477967;26;20353;-73
2024/04/15 05:15:39;;;;;;;;;;;16.00;99.90;;;;;;5478823;26;19935;-74
2024/04/15 05:18:05;;;;;;;;;;;16.30;99.90;;;;;;5450566;26;19931;-74
2024/04/15 05:20:36;;;;;;;;;;;16.50;99.90;;;;;;5450681;26;19953;-73
2024/04/15 05:23:02;;;;;;;;;;;16.60;99.90;;;;;;5450310;26;19987;-73
2024/04/15 05:25:27;;;;;;;;;;;16.80;99.90;;;;;;5450463;26;20383;-73
2024/04/15 05:27:53;;;;;;;;;;;16.90;99.90;;;;;;5448539;26;20243;-74
2024/04/15 05:30:18;;;;;;;;;;;17.00;99.90;;;;;;5448230;26;20360;-73
2024/04/15 05:32:44;;;;;;;;;;;17.00;99.90;;;;;;5450638;26;20349;-73
2024/04/15 05:35:09;;;;;;;;;;;17.10;99.90;;;;;;5449953;26;19924;-74
2024/04/15 05:37:35;;;;;;;;;;;17.20;99.20;;;;;;5478493;26;20019;-74
2024/04/15 05:40:00;;;;;;;;;;;17.40;98.30;;;;;;5450799;26;20269;-75
2024/04/15 05:42:26;;;;;;;;;;;17.40;98.40;;;;;;5479020;26;19931;-74
2024/04/15 05:44:51;;;;;;;;;;;17.40;98.20;;;;;;5449660;26;19931;-73
2024/04/15 05:47:17;;;;;;;;;;;17.50;97.20;;;;;;5478378;26;19925;-74
2024/04/15 05:49:42;;;;;;;;;;;17.60;97.00;;;;;;5450227;26;19931;-75
2024/04/15 05:52:08;;;;;;;;;;;17.60;96.70;;;;;;5450021;26;20368;-75
2024/04/15 05:54:33;;;;;;;;;;;17.60;96.00;;;;;;5449870;26;20254;-72
2024/04/15 05:57:01;;;;;;;;;;;17.70;95.00;;;;;;5478121;26;20138;-72
2024/04/15 05:59:27;;;;;;;;;;;17.80;95.00;;;;;;5449823;26;19928;-74
2024/04/15 06:01:53;;;;;;;;;;;17.80;95.00;;;;;;5449879;26;19955;-72
2024/04/15 06:04:19;;;;;;;;;;;18.00;95.10;;;;;;5449546;26;20032;-72
2024/04/15 06:06:44;;;;;;;;;;;18.40;94.10;;;;;;5450011;26;19924;-73
2024/04/15 06:09:10;;;;;;;;;;;18.60;93.40;;;;;;5449866;26;20295;-72
2024/04/15 06:11:35;;;;;;;;;;;18.80;93.00;;;;;;5477893;26;19924;-73
2024/04/15 06:14:02;;;;;;;;;;;19.10;93.30;;;;;;5449370;26;19933;-74
2024/04/15 06:16:27;;;;;;;;;;;19.30;93.30;;;;;;5447367;26;19953;-73
2024/04/15 06:18:53;;;;;;;;;;;19.60;93.50;;;;;;5447708;26;20252;-74
2024/04/15 06:21:20;;;;;;;;;;;19.80;92.60;;;;;;5449588;26;19924;-74
2024/04/15 06:23:46;;;;;;;;;;;20.00;92.90;;;;;;5450333;26;19924;-74
2024/04/15 06:26:11;;;;;;;;;;;20.30;92.20;;;;;;5452145;26;19931;-72
2024/04/15 06:28:37;;;;;;;;;;;20.60;89.60;;;;;;5453563;26;19931;-73
2024/04/15 06:31:03;;;;;;;;;;;20.90;87.90;;;;;;5481424;26;19924;-75
2024/04/15 06:33:28;;;;;;;;;;;21.10;86.40;;;;;;5452854;26;20265;-74
2024/04/15 06:35:54;;;;;;;;;;;21.40;82.60;;;;;;5452707;26;19924;-75
2024/04/15 06:38:20;;;;;;;;;;;21.50;80.40;;;;;;5452628;26;20283;-74
2024/04/15 06:40:45;;;;;;;;;;;21.60;78.30;;;;;;5452520;26;19937;-73
2024/04/15 06:43:11;;;;;;;;;;;21.80;76.70;;;;;;5452807;26;19969;-73
2024/04/15 06:45:36;;;;;;;;;;;22.20;77.40;;;;;;5481229;26;20323;-73
2024/04/15 06:48:03;;;;;;;;;;;22.50;75.40;;;;;;5481228;26;19932;-74
2024/04/15 06:50:28;;;;;;;;;;;22.80;73.20;;;;;;5452810;26;20369;-73
2024/04/15 06:52:54;;;;;;;;;;;23.00;72.00;;;;;;5452801;26;19957;-74
2024/04/15 06:55:19;;;;;;;;;;;23.10;71.20;;;;;;5481570;26;20364;-73
2024/04/15 06:57:45;;;;;;;;;;;23.40;71.00;;;;;;5481210;26;20342;-74
2024/04/15 07:00:11;;;;;;;;;;;23.60;70.80;;;;;;5480826;26;19952;-74
2024/04/15 07:02:36;;;;;;;;;;;23.80;69.60;;;;;;5481064;26;19997;-72
2024/04/15 07:05:02;;;;;;;;;;;24.10;68.40;;;;;;5452626;26;19944;-73
2024/04/15 07:07:27;;;;;;;;;;;24.50;66.80;;;;;;5450546;26;20736;-72
2024/04/15 07:09:53;;;;;;;;;;;25.00;64.50;;;;;;5481204;26;19932;-73
2024/04/15 07:12:18;;;;;;;;;;;25.20;61.80;;;;;;5452053;26;19924;-73
2024/04/15 07:14:44;;;;;;;;;;;25.40;61.90;;;;;;5452539;26;19951;-73
2024/04/15 07:17:10;;;;;;;;;;;25.60;60.30;;;;;;5452672;26;19925;-73
2024/04/15 07:19:36;;;;;;;;;;;25.60;60.00;;;;;;5452348;26;20743;-74
2024/04/15 07:22:01;;;;;;;;;;;25.70;57.80;;;;;;5452177;26;20618;-72
2024/04/15 07:24:27;;;;;;;;;;;25.90;57.70;;;;;;5480420;26;20292;-74
2024/04/15 07:26:53;;;;;;;;;;;26.10;57.00;;;;;;5480991;26;19931;-74
2024/04/15 07:29:18;;;;;;;;;;;26.10;55.90;;;;;;5480343;26;20315;-74
2024/04/15 07:31:44;;;;;;;;;;;26.40;54.70;;;;;;5452077;26;20436;-72
2024/04/15 07:34:09;;;;;;;;;;;26.60;54.20;;;;;;5450293;26;20352;-73
2024/04/15 07:36:35;;;;;;;;;;;26.90;52.40;;;;;;5451445;26;19928;-73
2024/04/15 07:39:00;;;;;;;;;;;27.00;53.60;;;;;;5451906;26;19924;-73
2024/04/15 07:41:26;;;;;;;;;;;27.20;52.30;;;;;;5480601;26;19997;-73
2024/04/15 07:43:52;;;;;;;;;;;27.40;51.10;;;;;;5452010;26;20014;-73
2024/04/15 07:46:17;;;;;;;;;;;28.00;50.90;;;;;;5451855;26;19925;-73
2024/04/15 07:48:43;;;;;;;;;;;28.30;49.40;;;;;;5452035;26;19931;-74
2024/04/15 07:51:09;;;;;;;;;;;28.60;48.70;;;;;;5451859;26;19924;-74
2024/04/15 07:53:34;;;;;;;;;;;28.90;46.80;;;;;;5479745;26;20235;-74
2024/04/15 07:56:00;;;;;;;;;;;29.40;44.90;;;;;;5451616;26;19925;-74
2024/04/15 07:58:25;;;;;;;;;;;29.70;44.50;;;;;;5451796;26;19989;-74
2024/04/15 08:00:51;;;;;;;;;;;30.00;42.90;;;;;;5451597;26;20353;-73
2024/04/15 08:03:16;;;;;;;;;;;30.30;41.40;;;;;;5451645;26;19993;-73
2024/04/15 08:05:42;;;;;;;;;;;30.70;39.20;;;;;;5480034;26;20069;-74
2024/04/15 08:08:07;;;;;;;;;;;30.90;39.60;;;;;;5451392;26;20001;-74
2024/04/15 08:10:34;;;;;;;;;;;31.20;38.60;;;;;;5479699;26;20054;-73
2024/04/15 08:12:59;;;;;;;;;;;31.60;37.50;;;;;;5451634;26;20765;-74
2024/04/15 08:15:25;;;;;;;;;;;32.00;36.30;;;;;;5451376;26;20422;-73
2024/04/15 08:17:50;;;;;;;;;;;32.50;35.10;;;;;;5451539;26;19966;-74
2024/04/15 08:20:16;;;;;;;;;;;33.00;34.50;;;;;;5451438;26;19966;-74
2024/04/15 08:22:43;;;;;;;;;;;33.40;34.50;;;;;;5480146;26;19935;-74
2024/04/15 08:25:09;;;;;;;;;;;33.80;33.50;;;;;;5480219;26;20386;-74
2024/04/15 08:27:35;;;;;;;;;;;34.00;32.40;;;;;;5451256;26;20365;-74
2024/04/15 08:30:01;;;;;;;;;;;33.80;32.20;;;;;;5480134;26;19924;-73
2024/04/15 08:32:27;;;;;;;;;;;34.00;31.10;;;;;;5480110;26;19989;-73
2024/04/15 08:34:52;;;;;;;;;;;33.70;31.50;;;;;;5451537;26;20683;-73
2024/04/15 08:37:18;;;;;;;;;;;33.20;32.00;;;;;;5451050;26;19924;-74
2024/04/15 08:39:43;;;;;;;;;;;33.10;31.50;;;;;;5479519;26;19946;-74
2024/04/15 08:42:15;;;;;;;;;;;33.00;32.30;;;;;;5479203;26;19924;-73
2024/04/15 08:44:44;;;;;;;;;;;32.90;32.00;;;;;;5451022;26;19932;-74
2024/04/15 08:47:12;;;;;;;;;;;32.70;32.80;;;;;;5444067;26;19933;-73
2024/04/15 08:49:39;;;;;;;;;;;32.80;32.80;;;;;;5449347;26;19931;-73
2024/04/15 08:52:06;;;;;;;;;;;32.80;32.90;;;;;;5479452;26;19924;-74
2024/04/15 08:54:31;;;;;;;;;;;32.90;33.40;;;;;;5451021;26;19932;-74
2024/04/15 08:56:59;;;;;;;;;;;33.10;32.00;;;;;;5479329;26;19924;-74
2024/04/15 08:59:25;;;;;;;;;;;32.90;32.20;;;;;;5450639;26;20444;-73
2024/04/15 09:01:52;;;;;;;;;;;33.00;32.30;;;;;;5479565;26;19924;-74
2024/04/15 09:04:18;;;;;;;;;;;32.90;32.50;;;;;;5450844;26;19925;-75
2024/04/15 09:06:43;;;;;;;;;;;32.40;32.20;;;;;;5479420;26;19924;-74
2024/04/15 09:09:10;;;;;;;;;;;32.10;32.80;;;;;;5450850;26;19976;-74
2024/04/15 09:11:35;;;;;;;;;;;32.00;33.40;;;;;;5450764;26;19972;-74
2024/04/15 09:14:01;;;;;;;;;;;31.70;33.00;;;;;;5479341;26;20440;-73
2024/04/15 09:16:28;;;;;;;;;;;31.20;34.00;;;;;;5479056;26;19925;-73
2024/04/15 09:18:53;;;;;;;;;;;30.80;34.10;;;;;;5451348;26;19924;-72
2024/04/15 09:21:22;;;;;;;;;;;30.30;35.00;;;;;;5450586;26;19924;-74
2024/04/15 09:23:48;;;;;;;;;;;29.90;36.40;;;;;;5450805;26;19924;-74
2024/04/15 09:26:13;;;;;;;;;;;29.60;37.00;;;;;;5450756;26;19925;-74
2024/04/15 09:28:39;;;;;;;;;;;29.20;37.40;;;;;;5479001;26;19925;-73
2024/04/15 09:31:05;;;;;;;;;;;28.70;39.10;;;;;;5450441;26;19925;-72
2024/04/15 09:33:30;;;;;;;;;;;28.40;39.00;;;;;;5479058;26;19953;-72
2024/04/15 09:35:57;;;;;;;;;;;28.20;39.40;;;;;;5450828;26;20082;-74
2024/04/15 09:38:23;;;;;;;;;;;28.10;39.70;;;;;;5450890;26;20319;-74
2024/04/15 09:40:51;;;;;;;;;;;27.90;40.10;;;;;;5449721;26;20017;-73
2024/04/15 09:43:17;;;;;;;;;;;27.80;40.30;;;;;;5450730;26;19924;-75
2024/04/15 09:45:43;;;;;;;;;;;27.70;40.90;;;;;;5479267;26;19925;-74
2024/04/15 09:48:11;;;;;;;;;;;27.70;41.00;;;;;;5478801;26;20245;-73
2024/04/15 09:50:38;;;;;;;;;;;27.70;41.00;;;;;;5450293;26;20404;-73
2024/04/15 09:53:05;;;;;;;;;;;27.80;41.50;;;;;;5450144;26;19924;-73
2024/04/15 09:55:34;;;;;;;;;;;27.70;41.10;;;;;;5450200;26;19925;-73
2024/04/15 09:58:03;;;;;;;;;;;27.40;41.10;;;;;;5478763;26;19925;-73
2024/04/15 10:00:29;;;;;;;;;;;27.20;42.40;;;;;;5449722;26;19940;-73
2024/04/15 10:03:01;;;;;;;;;;;27.10;43.00;;;;;;5478220;26;19924;-73
2024/04/15 10:05:30;;;;;;;;;;;26.90;42.80;;;;;;5450148;26;19975;-74
2024/04/15 10:07:59;;;;;;;;;;;26.90;43.10;;;;;;5450117;26;19936;-72
2024/04/15 10:10:26;;;;;;;;;;;26.80;43.70;;;;;;5449979;26;19933;-73
2024/04/15 10:12:54;;;;;;;;;;;26.80;43.00;;;;;;5449842;26;20372;-72
2024/04/15 10:15:21;;;;;;;;;;;26.80;43.20;;;;;;5449890;26;19931;-73
2024/04/15 10:18:04;;;;;;;;;;;26.90;42.60;;;;;;5449779;26;20584;-72
2024/04/15 10:20:32;;;;;;;;;;;26.90;42.40;;;;;;5478428;26;19931;-73
2024/04/15 10:22:58;;;;;;;;;;;27.00;42.30;;;;;;5478128;26;19932;-73
2024/04/15 10:25:25;;;;;;;;;;;26.90;42.40;;;;;;5449892;26;19931;-73
2024/04/15 10:27:51;;;;;;;;;;;26.90;42.60;;;;;;5449747;26;19997;-73
2024/04/15 10:30:19;;;;;;;;;;;26.90;44.10;;;;;;5449589;26;19924;-74
2024/04/15 10:32:45;;;;;;;;;;;26.80;43.70;;;;;;5449799;26;20413;-73
2024/04/15 10:35:20;;;;;;;;;;;26.60;44.00;;;;;;5478197;26;19932;-73
2024/04/15 10:37:49;;;;;;;;;;;26.40;44.40;;;;;;5449640;26;19924;-73
2024/04/15 10:40:15;;;;;;;;;;;26.40;44.20;;;;;;5478003;26;19924;-74
2024/04/15 10:42:41;;;;;;;;;;;26.40;44.90;;;;;;5447674;26;19952;-72
2024/04/15 10:45:10;;;;;;;;;;;26.30;44.20;;;;;;5447577;26;19924;-73
2024/04/15 10:47:37;;;;;;;;;;;26.10;45.00;;;;;;5449456;26;19936;-73
2024/04/15 10:50:03;;;;;;;;;;;26.20;45.10;;;;;;5449527;26;20365;-72
2024/04/15 10:52:29;;;;;;;;;;;26.20;45.00;;;;;;5477566;26;19925;-73
2024/04/15 10:54:55;;;;;;;;;;;26.20;45.10;;;;;;5449110;26;20361;-73
2024/04/15 10:57:20;;;;;;;;;;;26.20;44.60;;;;;;5477812;26;19931;-74
2024/04/15 10:59:46;;;;;;;;;;;26.20;45.00;;;;;;5449137;26;19931;-73
2024/04/15 11:02:11;;;;;;;;;;;26.30;45.30;;;;;;5449128;26;19932;-73
2024/04/15 11:04:37;;;;;;;;;;;26.30;45.20;;;;;;5448991;26;19931;-74
2024/04/15 11:07:03;;;;;;;;;;;26.40;44.60;;;;;;5449065;26;19924;-74
2024/04/15 11:09:29;;;;;;;;;;;26.50;45.30;;;;;;5477292;26;19924;-74
2024/04/15 11:11:54;;;;;;;;;;;26.60;44.90;;;;;;5478075;26;19932;-73
2024/04/15 11:14:20;;;;;;;;;;;26.60;46.00;;;;;;5452545;26;20369;-74
2024/04/15 11:16:49;;;;;;;;;;;26.80;45.10;;;;;;5480916;26;19931;-73
2024/04/15 11:19:16;;;;;;;;;;;26.80;45.40;;;;;;5452454;26;19925;-74
2024/04/15 11:21:41;;;;;;;;;;;26.90;45.80;;;;;;5480846;26;20430;-73
2024/04/15 11:24:07;;;;;;;;;;;26.80;46.20;;;;;;5480906;26;19924;-73
2024/04/15 11:26:36;;;;;;;;;;;26.90;45.30;;;;;;5481048;26;19932;-73
2024/04/15 11:29:05;;;;;;;;;;;26.70;45.70;;;;;;5452594;26;19932;-73
2024/04/15 11:31:31;;;;;;;;;;;26.70;45.30;;;;;;5452235;26;19924;-73
2024/04/15 11:33:56;;;;;;;;;;;26.80;47.10;;;;;;5452601;26;19970;-73
2024/04/15 11:36:22;;;;;;;;;;;26.70;46.80;;;;;;5480574;26;19932;-73
2024/04/15 11:38:48;;;;;;;;;;;26.80;47.00;;;;;;5452234;26;20355;-73
2024/04/15 11:41:14;;;;;;;;;;;26.80;46.10;;;;;;5452184;26;19936;-73
2024/04/15 11:43:40;;;;;;;;;;;26.80;46.30;;;;;;5480606;26;20409;-74
2024/04/15 11:46:07;;;;;;;;;;;26.80;45.90;;;;;;5451971;26;19924;-73
2024/04/15 11:48:32;;;;;;;;;;;26.90;46.40;;;;;;5452228;26;19931;-73
2024/04/15 11:50:58;;;;;;;;;;;27.00;46.40;;;;;;5450368;26;19924;-74
2024/04/15 11:53:24;;;;;;;;;;;26.90;47.20;;;;;;5452161;26;19935;-74
2024/04/15 11:55:55;;;;;;;;;;;26.80;47.00;;;;;;5452112;26;19966;-73
2024/04/15 11:58:21;;;;;;;;;;;26.80;47.10;;;;;;5451981;26;19924;-73
2024/04/15 12:00:47;;;;;;;;;;;26.70;47.40;;;;;;5451783;26;19936;-73
2024/04/15 12:03:12;;;;;;;;;;;26.60;46.90;;;;;;5480205;26;19932;-75
2024/04/15 12:05:39;;;;;;;;;;;26.40;47.50;;;;;;5480138;26;19925;-73
2024/04/15 12:08:06;;;;;;;;;;;26.30;48.10;;;;;;5480318;26;19996;-71
2024/04/15 12:10:34;;;;;;;;;;;26.40;48.50;;;;;;5451742;26;19943;-73
2024/04/15 12:12:59;;;;;;;;;;;26.30;48.70;;;;;;5480056;26;19932;-74
2024/04/15 12:15:25;;;;;;;;;;;26.30;49.10;;;;;;5451820;26;19924;-73
2024/04/15 12:17:51;;;;;;;;;;;26.30;48.80;;;;;;5451799;26;19924;-73
2024/04/15 12:20:16;;;;;;;;;;;26.20;49.50;;;;;;5480184;26;19933;-74
2024/04/15 12:22:42;;;;;;;;;;;26.20;50.10;;;;;;5479963;26;19925;-73
2024/04/15 12:25:09;;;;;;;;;;;26.30;50.60;;;;;;5451708;26;19932;-73
2024/04/15 12:27:35;;;;;;;;;;;26.30;50.00;;;;;;5451520;26;20361;-73
2024/04/15 12:30:00;;;;;;;;;;;26.30;49.90;;;;;;5451373;26;19925;-73
2024/04/15 12:32:26;;;;;;;;;;;26.40;50.80;;;;;;5479878;26;19924;-73
2024/04/15 12:34:51;;;;;;;;;;;26.50;49.60;;;;;;5479974;26;19932;-74
2024/04/15 12:37:17;;;;;;;;;;;26.50;49.60;;;;;;5479831;26;19964;-73
2024/04/15 12:39:42;;;;;;;;;;;26.50;50.30;;;;;;5451307;26;19924;-73
2024/04/15 12:42:08;;;;;;;;;;;26.50;50.40;;;;;;5451189;26;19924;-73
2024/04/15 12:44:33;;;;;;;;;;;26.40;49.40;;;;;;5480087;26;19932;-73
2024/04/15 12:47:00;;;;;;;;;;;26.40;50.60;;;;;;5450961;26;19924;-73
2024/04/15 12:49:25;;;;;;;;;;;26.60;50.80;;;;;;5479730;26;20307;-72
2024/04/15 12:51:51;;;;;;;;;;;26.60;50.50;;;;;;5451655;26;19957;-73
2024/04/15 12:54:17;;;;;;;;;;;26.60;49.50;;;;;;5479378;26;19993;-73
2024/04/15 12:56:42;;;;;;;;;;;26.60;50.60;;;;;;5479709;26;19956;-73
2024/04/15 12:59:08;;;;;;;;;;;26.50;49.80;;;;;;5479592;26;19932;-73
2024/04/15 13:01:34;;;;;;;;;;;26.40;50.80;;;;;;5450954;26;20365;-73
2024/04/15 13:03:59;;;;;;;;;;;26.40;50.70;;;;;;5450157;26;19924;-72
2024/04/15 13:06:25;;;;;;;;;;;26.50;51.20;;;;;;5450590;26;19935;-72
2024/04/15 13:08:51;;;;;;;;;;;26.50;51.60;;;;;;5451317;26;19925;-73
2024/04/15 13:11:16;;;;;;;;;;;26.70;50.70;;;;;;5479555;26;19931;-73
2024/04/15 13:13:42;;;;;;;;;;;26.70;49.80;;;;;;5450376;26;19924;-73
2024/04/15 13:16:07;;;;;;;;;;;26.60;49.50;;;;;;5479291;26;20607;-73
2024/04/15 13:18:33;;;;;;;;;;;26.40;50.30;;;;;;5479071;26;19936;-72
2024/04/15 13:20:59;;;;;;;;;;;26.20;51.00;;;;;;5450584;26;19936;-73
2024/04/15 13:23:25;;;;;;;;;;;26.00;51.30;;;;;;5450836;26;19956;-73
2024/04/15 13:25:51;;;;;;;;;;;26.00;51.00;;;;;;5449170;26;20353;-73
2024/04/15 13:28:16;;;;;;;;;;;25.90;51.70;;;;;;5450940;26;19931;-74
2024/04/15 13:30:42;;;;;;;;;;;25.70;51.40;;;;;;5448745;26;20432;-73
2024/04/15 13:33:07;;;;;;;;;;;25.70;52.00;;;;;;5448504;26;20369;-74
2024/04/15 13:35:33;;;;;;;;;;;25.60;53.50;;;;;;5449326;26;19932;-74
2024/04/15 13:37:58;;;;;;;;;;;25.60;53.20;;;;;;5450638;26;20249;-74
2024/04/15 13:40:25;;;;;;;;;;;25.70;53.50;;;;;;5450941;26;19936;-72
2024/04/15 13:42:50;;;;;;;;;;;25.80;53.20;;;;;;5450321;26;19929;-74
2024/04/15 13:45:16;;;;;;;;;;;25.80;50.90;;;;;;5478856;26;20334;-73
2024/04/15 13:47:41;;;;;;;;;;;25.90;50.50;;;;;;5478863;26;20385;-73
2024/04/15 13:50:07;;;;;;;;;;;26.00;50.40;;;;;;5478852;26;20254;-75
2024/04/15 13:52:32;;;;;;;;;;;26.00;49.80;;;;;;5478421;26;20017;-74
2024/04/15 13:54:59;;;;;;;;;;;25.90;51.00;;;;;;5479067;26;19993;-74
2024/04/15 13:57:25;;;;;;;;;;;25.80;50.50;;;;;;5478895;26;20368;-73
2024/04/15 13:59:50;;;;;;;;;;;25.60;51.60;;;;;;5478524;26;19924;-74
2024/04/15 14:02:16;;;;;;;;;;;25.70;51.40;;;;;;5449979;26;19936;-73
2024/04/15 14:04:41;;;;;;;;;;;25.80;49.80;;;;;;5449855;26;19930;-74
2024/04/15 14:07:07;;;;;;;;;;;25.80;47.50;;;;;;5478574;26;20537;-73
2024/04/15 14:09:32;;;;;;;;;;;25.90;47.60;;;;;;5450026;26;19997;-74